Time;durP1;ratioP1;P1;durP2;ratioP2;P2;SDS_P1;SDS_P2;PMS_P1;PMS_P2;Temp;Humidity;BMP_temperature;BMP_pressure;BME280_temperature;BME280_humidity;BME280_pressure;Samples;Min_cycle;Max_cycle;Signal;HPM_P1;HPM_P2
2021/04/08 00:00:42;;;;;;;3.93;2.17;;;0.90;96.10;;;;;;5075072;28;20170;-70
2021/04/08 00:03:07;;;;;;;2.57;2.07;;;0.90;95.90;;;;;;5075190;28;20531;-70
2021/04/08 00:05:33;;;;;;;6.43;2.17;;;1.00;96.10;;;;;;5074998;28;20611;-69
2021/04/08 00:07:59;;;;;;;3.77;2.13;;;1.10;95.80;;;;;;5074778;28;20169;-70
2021/04/08 00:10:24;;;;;;;1.57;1.47;;;1.10;95.20;;;;;;5074412;28;20659;-70
2021/04/08 00:12:50;;;;;;;2.87;2.57;;;0.90;94.60;;;;;;5075058;28;20663;-67
2021/04/08 00:15:16;;;;;;;3.23;2.67;;;0.90;95.20;;;;;;5074718;28;20236;-69
2021/04/08 00:17:42;;;;;;;3.20;2.40;;;1.00;95.70;;;;;;5074915;28;20166;-69
2021/04/08 00:20:16;;;;;;;4.22;2.95;;;1.00;95.60;;;;;;5074484;28;20173;-69
2021/04/08 00:22:41;;;;;;;1.90;1.70;;;0.90;95.70;;;;;;5074723;28;20185;-67
2021/04/08 00:25:08;;;;;;;2.30;2.20;;;1.00;95.80;;;;;;5074793;28;20194;-68
2021/04/08 00:27:33;;;;;;;1.58;1.48;;;1.00;95.70;;;;;;5074476;28;20405;-69
2021/04/08 00:29:59;;;;;;;2.37;2.17;;;1.10;96.20;;;;;;5074443;28;20640;-70
2021/04/08 00:32:25;;;;;;;3.10;2.53;;;0.90;95.60;;;;;;5074627;28;20219;-70
2021/04/08 00:34:50;;;;;;;4.40;2.80;;;0.80;95.70;;;;;;5074490;28;20194;-69
2021/04/08 00:37:16;;;;;;;2.10;2.00;;;0.80;95.40;;;;;;5074295;28;20172;-70
2021/04/08 00:39:42;;;;;;;1.93;1.83;;;0.90;95.20;;;;;;5074291;28;20243;-68
2021/04/08 00:42:07;;;;;;;2.63;2.10;;;0.90;91.60;;;;;;5074314;28;20162;-70
2021/04/08 00:44:33;;;;;;;1.77;1.67;;;0.70;92.10;;;;;;5074184;28;20580;-68
2021/04/08 00:46:59;;;;;;;9.50;1.77;;;0.70;93.20;;;;;;5074170;28;20198;-70
2021/04/08 00:49:25;;;;;;;2.40;1.90;;;0.70;94.00;;;;;;5074041;28;20734;-68
2021/04/08 00:51:51;;;;;;;4.13;2.37;;;0.70;93.90;;;;;;5074248;28;20423;-70
2021/04/08 00:54:17;;;;;;;2.03;1.92;;;0.80;93.60;;;;;;5073911;28;20202;-70
2021/04/08 00:56:43;;;;;;;1.50;1.40;;;0.90;92.80;;;;;;5074074;28;20173;-70
2021/04/08 00:59:09;;;;;;;2.05;1.95;;;1.00;93.30;;;;;;5073850;28;20173;-70
2021/04/08 01:01:35;;;;;;;1.63;1.52;;;0.90;92.80;;;;;;5074011;28;20180;-69
2021/04/08 01:04:01;;;;;;;1.73;1.60;;;0.90;93.40;;;;;;5074089;28;20568;-68
2021/04/08 01:06:27;;;;;;;2.40;2.03;;;0.90;94.60;;;;;;5073809;28;20169;-69
2021/04/08 01:08:53;;;;;;;1.33;1.30;;;1.00;94.50;;;;;;5073562;28;20165;-69
2021/04/08 01:11:18;;;;;;;1.57;1.47;;;1.00;93.80;;;;;;5073790;28;20292;-70
2021/04/08 01:13:45;;;;;;;4.97;1.90;;;1.00;93.60;;;;;;5073663;28;20239;-70
2021/04/08 01:16:18;;;;;;;1.20;1.20;;;1.10;93.90;;;;;;5073691;28;20170;-70
2021/04/08 01:19:31;;;;;;;2.00;1.60;;;1.20;94.00;;;;;;5073760;28;20173;-68
2021/04/08 01:22:20;;;;;;;3.60;1.48;;;0.90;93.40;;;;;;5056228;28;20541;-70
2021/04/08 01:25:06;;;;;;;3.00;1.60;;;0.90;94.20;;;;;;5073500;28;20624;-68
2021/04/08 01:27:40;;;;;;;2.33;1.60;;;0.90;93.70;;;;;;5073586;28;20173;-69
2021/04/08 01:30:28;;;;;;;3.42;2.42;;;1.00;94.50;;;;;;5073614;28;20202;-68
2021/04/08 01:32:56;;;;;;;2.05;1.55;;;1.10;95.00;;;;;;5072364;28;20546;-70
2021/04/08 01:35:26;;;;;;;3.25;1.70;;;1.00;95.00;;;;;;5073291;28;20258;-67
2021/04/08 01:37:56;;;;;;;1.98;1.80;;;1.00;94.90;;;;;;5073648;28;20199;-68
2021/04/08 01:40:25;;;;;;;2.63;1.48;;;1.10;94.80;;;;;;5073665;28;20245;-69
2021/04/08 01:42:54;;;;;;;2.38;1.67;;;1.20;94.80;;;;;;5073415;28;20627;-70
2021/04/08 01:45:21;;;;;;;4.90;1.40;;;1.20;94.60;;;;;;5073285;28;20204;-70
2021/04/08 01:47:49;;;;;;;2.58;2.40;;;1.10;94.60;;;;;;5073465;28;20178;-70
2021/04/08 01:50:16;;;;;;;3.67;1.50;;;1.20;94.90;;;;;;5073140;28;20175;-70
2021/04/08 01:52:45;;;;;;;2.80;1.98;;;1.00;94.70;;;;;;5073325;28;20533;-68
2021/04/08 01:55:12;;;;;;;10.65;2.00;;;1.10;94.90;;;;;;5073084;28;20205;-69
2021/04/08 01:57:39;;;;;;;2.33;1.88;;;1.10;95.00;;;;;;5073581;28;20253;-70
2021/04/08 02:00:09;;;;;;;1.73;1.63;;;1.10;94.90;;;;;;5071732;28;20816;-69
2021/04/08 02:02:37;;;;;;;1.33;1.27;;;1.20;94.80;;;;;;5073230;28;20260;-70
2021/04/08 02:05:08;;;;;;;2.88;1.70;;;1.20;94.80;;;;;;5073100;28;20202;-68
2021/04/08 02:07:36;;;;;;;1.73;1.63;;;1.30;94.50;;;;;;5073376;28;20655;-70
2021/04/08 02:10:04;;;;;;;3.53;1.40;;;1.20;94.30;;;;;;5073033;28;20538;-70
2021/04/08 02:12:30;;;;;;;7.13;2.10;;;1.20;94.40;;;;;;5073072;28;20212;-70
2021/04/08 02:14:57;;;;;;;1.30;1.20;;;1.20;94.50;;;;;;5072891;28;20211;-70
2021/04/08 02:17:24;;;;;;;1.73;1.63;;;1.10;94.60;;;;;;5073188;28;20173;-69
2021/04/08 02:19:51;;;;;;;3.55;2.05;;;1.20;94.80;;;;;;5072974;28;20206;-70
2021/04/08 02:22:18;;;;;;;2.58;1.95;;;1.00;94.70;;;;;;5072956;28;20227;-69
2021/04/08 02:24:44;;;;;;;3.63;2.13;;;1.00;94.90;;;;;;5072912;28;20272;-69
2021/04/08 02:27:11;;;;;;;1.10;1.05;;;1.10;94.80;;;;;;5073052;28;20253;-68
2021/04/08 02:29:39;;;;;;;1.60;1.50;;;1.20;94.70;;;;;;5072828;28;20174;-70
2021/04/08 02:32:06;;;;;;;1.38;1.27;;;1.20;94.40;;;;;;5074658;28;20211;-70
2021/04/08 02:34:31;;;;;;;1.50;1.40;;;1.20;94.50;;;;;;5076595;28;20608;-70
2021/04/08 02:36:57;;;;;;;2.70;1.33;;;1.20;94.30;;;;;;5076666;28;20169;-70
2021/04/08 02:39:23;;;;;;;2.93;1.50;;;1.00;94.80;;;;;;5076510;28;20170;-69
2021/04/08 02:41:48;;;;;;;1.23;1.23;;;1.00;94.90;;;;;;5076962;28;20639;-69
2021/04/08 02:44:15;;;;;;;1.23;1.13;;;1.10;95.10;;;;;;5076660;28;20190;-70
2021/04/08 02:46:41;;;;;;;2.10;1.73;;;1.10;94.80;;;;;;5076497;28;20197;-67
2021/04/08 02:49:08;;;;;;;3.20;1.83;;;1.10;94.70;;;;;;5076307;28;20181;-69
2021/04/08 02:51:55;;;;;;;3.72;1.67;;;1.10;94.60;;;;;;5076520;28;20647;-70
2021/04/08 02:54:35;;;;;;;2.55;1.95;;;1.00;94.50;;;;;;5076301;28;20568;-68
2021/04/08 02:57:02;;;;;;;1.17;1.10;;;1.10;94.40;;;;;;5076330;28;20146;-70
2021/04/08 02:59:51;;;;;;;2.30;1.52;;;1.10;94.40;;;;;;5076302;28;20173;-69
2021/04/08 03:02:20;;;;;;;2.67;1.42;;;1.00;94.20;;;;;;5076367;28;20170;-68
2021/04/08 03:04:52;;;;;;;4.82;2.10;;;0.90;94.30;;;;;;5076220;28;20194;-69
2021/04/08 03:07:30;;;;;;;2.15;1.67;;;0.90;94.40;;;;;;5076135;28;20155;-70
2021/04/08 03:09:57;;;;;;;2.65;1.70;;;1.00;94.70;;;;;;5076227;28;20630;-70
2021/04/08 03:12:25;;;;;;;1.73;1.38;;;1.10;94.60;;;;;;5076185;28;20173;-70
2021/04/08 03:14:54;;;;;;;2.22;2.00;;;1.10;94.30;;;;;;5075869;28;20217;-70
2021/04/08 03:17:24;;;;;;;1.85;1.75;;;1.10;94.20;;;;;;5076198;28;20166;-68
2021/04/08 03:19:52;;;;;;;2.13;1.45;;;1.20;94.20;;;;;;5075800;28;20179;-70
2021/04/08 03:22:20;;;;;;;2.80;2.17;;;1.20;94.40;;;;;;5075853;28;20182;-69
2021/04/08 03:24:48;;;;;;;1.95;1.52;;;1.20;94.00;;;;;;5076078;28;20666;-70
2021/04/08 03:27:14;;;;;;;1.88;1.65;;;1.30;93.90;;;;;;5075888;28;20181;-69
2021/04/08 03:29:41;;;;;;;11.13;1.83;;;1.30;93.60;;;;;;5075964;28;20181;-67
2021/04/08 03:32:09;;;;;;;9.98;1.38;;;1.20;93.40;;;;;;5074633;28;20179;-69
2021/04/08 03:34:37;;;;;;;1.30;1.20;;;1.10;93.80;;;;;;5075712;28;20304;-68
2021/04/08 03:37:04;;;;;;;4.40;1.50;;;1.00;93.90;;;;;;5075606;28;20522;-70
2021/04/08 03:39:30;;;;;;;2.53;1.33;;;0.90;94.10;;;;;;5075568;28;20174;-69
2021/04/08 03:41:57;;;;;;;1.33;1.27;;;1.00;94.70;;;;;;5075719;28;20177;-68
2021/04/08 03:44:23;;;;;;;4.38;1.80;;;1.10;94.80;;;;;;5074377;28;20268;-70
2021/04/08 03:46:50;;;;;;;2.47;1.35;;;1.00;94.40;;;;;;5075417;28;20180;-70
2021/04/08 03:49:17;;;;;;;1.52;1.10;;;1.00;94.60;;;;;;5075301;28;20181;-70
2021/04/08 03:51:44;;;;;;;2.17;1.67;;;1.00;94.60;;;;;;5075340;28;20192;-70
2021/04/08 03:54:13;;;;;;;1.35;1.35;;;1.00;94.30;;;;;;5075162;28;20300;-68
2021/04/08 03:56:47;;;;;;;1.42;1.20;;;1.10;94.30;;;;;;5075334;28;20212;-69
2021/04/08 03:59:16;;;;;;;1.13;1.05;;;0.90;94.20;;;;;;5075184;28;20173;-68
2021/04/08 04:01:44;;;;;;;2.78;1.80;;;1.00;94.70;;;;;;5075332;28;20533;-69
2021/04/08 04:04:11;;;;;;;1.45;1.35;;;1.00;94.60;;;;;;5075198;28;20686;-69
2021/04/08 04:06:41;;;;;;;13.50;1.85;;;1.00;94.70;;;;;;5075022;28;20648;-69
2021/04/08 04:09:10;;;;;;;3.22;1.30;;;1.00;94.60;;;;;;5074890;28;20252;-69
2021/04/08 04:11:38;;;;;;;3.55;1.58;;;1.10;94.60;;;;;;5075092;28;20219;-70
2021/04/08 04:14:07;;;;;;;1.77;1.67;;;1.20;94.70;;;;;;5074873;28;20239;-69
2021/04/08 04:16:38;;;;;;;2.17;1.30;;;1.10;94.30;;;;;;5074761;28;20526;-68
2021/04/08 04:19:04;;;;;;;1.35;0.90;;;1.20;94.10;;;;;;5074885;28;20252;-70
2021/04/08 04:21:32;;;;;;;2.65;2.03;;;1.30;94.30;;;;;;5074618;28;20178;-69
2021/04/08 04:23:57;;;;;;;3.80;1.80;;;1.20;94.10;;;;;;5074803;28;20227;-70
2021/04/08 04:26:23;;;;;;;1.50;1.07;;;1.10;94.50;;;;;;5074669;28;20169;-69
2021/04/08 04:28:48;;;;;;;2.50;1.60;;;1.30;94.30;;;;;;5074670;28;20174;-69
2021/04/08 04:31:14;;;;;;;1.50;1.40;;;1.20;94.20;;;;;;5074586;28;20178;-68
2021/04/08 04:33:40;;;;;;;1.57;1.47;;;1.30;94.20;;;;;;5074522;28;20190;-68
2021/04/08 04:36:06;;;;;;;1.20;1.20;;;1.30;94.00;;;;;;5074600;28;20200;-70
2021/04/08 04:38:31;;;;;;;1.83;1.73;;;1.20;93.90;;;;;;5074576;28;20177;-69
2021/04/08 04:40:57;;;;;;;1.20;1.17;;;1.20;94.10;;;;;;5074056;28;20169;-68
2021/04/08 04:43:23;;;;;;;4.73;1.70;;;1.20;94.20;;;;;;5074136;28;20538;-70
2021/04/08 04:45:48;;;;;;;1.70;1.60;;;1.20;94.10;;;;;;5074273;28;20176;-69
2021/04/08 04:48:14;;;;;;;2.30;0.93;;;1.20;94.20;;;;;;5074308;28;20173;-68
2021/04/08 04:50:40;;;;;;;4.67;1.40;;;1.30;94.10;;;;;;5074102;28;20170;-69
2021/04/08 04:53:05;;;;;;;2.33;1.67;;;1.20;93.90;;;;;;5074242;28;20174;-70
2021/04/08 04:55:31;;;;;;;3.97;2.03;;;1.00;93.70;;;;;;5073660;28;20198;-70
2021/04/08 04:57:57;;;;;;;1.20;1.10;;;1.10;94.00;;;;;;5074466;28;20683;-68
2021/04/08 05:00:23;;;;;;;2.73;1.57;;;1.10;93.90;;;;;;5074032;28;20178;-68
2021/04/08 05:02:50;;;;;;;2.40;1.50;;;1.10;94.30;;;;;;5074191;28;20193;-68
2021/04/08 05:05:16;;;;;;;1.98;1.17;;;1.20;94.00;;;;;;5073842;28;20200;-68
2021/04/08 05:07:42;;;;;;;1.90;1.73;;;1.20;94.00;;;;;;5074000;28;20256;-70
2021/04/08 05:10:11;;;;;;;5.07;2.35;;;1.20;94.10;;;;;;5073571;28;20536;-69
2021/04/08 05:12:37;;;;;;;3.47;1.52;;;1.30;94.10;;;;;;5073877;28;20576;-70
2021/04/08 05:15:03;;;;;;;1.80;1.20;;;1.40;94.00;;;;;;5073733;28;20564;-70
2021/04/08 05:17:28;;;;;;;1.67;1.57;;;1.50;93.90;;;;;;5074120;28;20240;-68
2021/04/08 05:19:57;;;;;;;5.40;3.77;;;1.40;93.50;;;;;;5073564;28;20940;-68
2021/04/08 05:22:23;;;;;;;3.70;1.30;;;1.30;93.50;;;;;;5073636;28;20181;-70
2021/04/08 05:24:48;;;;;;;2.43;1.00;;;1.20;93.40;;;;;;5073484;28;20224;-68
2021/04/08 05:27:14;;;;;;;1.53;1.40;;;1.20;93.70;;;;;;5073803;28;20197;-69
2021/04/08 05:29:40;;;;;;;1.63;1.53;;;1.30;93.80;;;;;;5072155;28;20174;-68
2021/04/08 05:32:07;;;;;;;3.53;3.20;;;1.40;93.90;;;;;;5073526;28;20399;-69
2021/04/08 05:34:33;;;;;;;3.55;1.33;;;1.50;93.90;;;;;;5073323;28;20251;-69
2021/04/08 05:36:58;;;;;;;2.77;2.40;;;1.40;93.70;;;;;;5073449;28;20169;-68
2021/04/08 05:39:24;;;;;;;1.40;1.30;;;1.40;93.70;;;;;;5073405;28;20166;-69
2021/04/08 05:41:50;;;;;;;1.50;1.37;;;1.60;93.70;;;;;;5073358;28;20193;-70
2021/04/08 05:44:15;;;;;;;1.83;1.77;;;1.70;93.20;;;;;;5073284;28;20198;-70
2021/04/08 05:46:41;;;;;;;2.80;1.53;;;1.80;93.10;;;;;;5072184;28;20179;-68
2021/04/08 05:49:07;;;;;;;1.77;1.40;;;1.90;92.90;;;;;;5073329;28;20181;-70
2021/04/08 05:51:32;;;;;;;2.20;1.30;;;2.00;92.90;;;;;;5073429;28;20270;-69
2021/04/08 05:54:00;;;;;;;5.63;1.80;;;2.20;92.70;;;;;;5073290;28;20560;-69
2021/04/08 05:56:26;;;;;;;1.58;1.38;;;2.30;92.50;;;;;;5073223;28;20553;-70
2021/04/08 05:58:51;;;;;;;1.27;1.17;;;2.40;92.20;;;;;;5073308;28;20207;-70
2021/04/08 06:01:17;;;;;;;1.27;1.10;;;2.50;92.10;;;;;;5073531;28;20913;-68
2021/04/08 06:03:43;;;;;;;2.27;1.20;;;2.70;92.30;;;;;;5073294;28;20182;-69
2021/04/08 06:06:08;;;;;;;4.10;1.73;;;2.80;91.80;;;;;;5073177;28;20175;-69
2021/04/08 06:08:34;;;;;;;2.73;2.50;;;2.90;91.50;;;;;;5077300;28;20175;-71
2021/04/08 06:10:59;;;;;;;4.00;1.30;;;3.10;91.10;;;;;;5077069;28;20307;-69
2021/04/08 06:13:25;;;;;;;4.87;2.30;;;3.00;90.70;;;;;;5077274;28;20262;-68
2021/04/08 06:15:53;;;;;;;1.60;1.50;;;3.00;90.80;;;;;;5077122;28;20200;-69
2021/04/08 06:18:20;;;;;;;4.45;1.25;;;3.10;90.60;;;;;;5077203;28;20173;-69
2021/04/08 06:20:46;;;;;;;0.88;0.88;;;3.20;89.50;;;;;;5076900;28;20176;-70
2021/04/08 06:23:12;;;;;;;4.93;1.00;;;3.40;89.50;;;;;;5077205;28;20619;-70
2021/04/08 06:25:37;;;;;;;2.00;1.53;;;3.70;87.30;;;;;;5076875;28;20264;-70
2021/04/08 06:28:03;;;;;;;1.40;1.30;;;4.10;84.90;;;;;;5077121;28;20169;-69
2021/04/08 06:30:29;;;;;;;2.00;1.50;;;4.50;83.80;;;;;;5076743;28;20201;-69
2021/04/08 06:32:55;;;;;;;2.70;2.10;;;5.20;79.30;;;;;;5076948;28;20435;-70
2021/04/08 06:35:22;;;;;;;2.20;1.80;;;5.90;74.40;;;;;;5075742;28;20197;-70
2021/04/08 06:37:50;;;;;;;2.50;1.85;;;6.50;67.40;;;;;;5077153;28;20465;-69
2021/04/08 06:40:17;;;;;;;2.08;1.80;;;7.00;64.60;;;;;;5076691;28;20531;-70
2021/04/08 06:42:42;;;;;;;2.90;2.35;;;7.60;61.60;;;;;;5076654;28;20163;-69
2021/04/08 06:45:09;;;;;;;1.90;1.60;;;8.00;57.90;;;;;;5077190;28;20541;-69
2021/04/08 06:47:52;;;;;;;2.03;1.80;;;8.20;54.70;;;;;;5076464;28;20410;-69
2021/04/08 06:50:22;;;;;;;1.52;1.42;;;8.10;52.50;;;;;;5076505;28;20191;-68
2021/04/08 06:52:48;;;;;;;2.22;1.83;;;8.00;51.40;;;;;;5076552;28;20204;-68
2021/04/08 06:55:14;;;;;;;4.15;2.50;;;8.50;51.30;;;;;;5076252;28;20235;-69
2021/04/08 06:57:42;;;;;;;2.47;2.10;;;10.00;49.50;;;;;;5077021;28;20176;-70
2021/04/08 07:00:09;;;;;;;2.10;1.40;;;11.30;47.10;;;;;;5076162;28;20199;-69
2021/04/08 07:02:37;;;;;;;3.73;2.87;;;12.10;43.70;;;;;;5076519;28;20901;-69
2021/04/08 07:05:07;;;;;;;1.50;1.10;;;13.10;42.50;;;;;;5076455;28;20431;-69
2021/04/08 07:07:32;;;;;;;2.50;1.83;;;14.40;38.60;;;;;;5076558;28;20403;-70
2021/04/08 07:09:58;;;;;;;2.63;1.90;;;14.80;36.80;;;;;;5076569;28;20444;-68
2021/04/08 07:12:24;;;;;;;1.90;1.80;;;15.70;35.60;;;;;;5075314;28;20172;-70
2021/04/08 07:14:53;;;;;;;3.03;1.73;;;16.50;33.70;;;;;;5076144;28;20201;-69
2021/04/08 07:17:19;;;;;;;3.40;1.77;;;17.00;32.30;;;;;;5076562;28;20462;-69
2021/04/08 07:19:45;;;;;;;2.67;1.67;;;17.60;31.60;;;;;;5075895;28;20465;-70
2021/04/08 07:22:12;;;;;;;5.50;2.03;;;17.70;30.80;;;;;;5075994;28;20438;-69
2021/04/08 07:24:46;;;;;;;1.40;1.30;;;17.80;30.30;;;;;;5075826;28;20420;-68
2021/04/08 07:27:19;;;;;;;1.90;1.80;;;17.90;30.10;;;;;;5076239;28;20428;-68
2021/04/08 07:29:51;;;;;;;2.80;1.97;;;18.40;29.70;;;;;;5075987;28;20407;-67
2021/04/08 07:32:21;;;;;;;2.87;1.67;;;18.30;29.40;;;;;;5075847;28;20494;-68
2021/04/08 07:34:56;;;;;;;1.67;1.57;;;19.00;29.60;;;;;;5074599;28;20976;-67
2021/04/08 07:37:27;;;;;;;6.73;2.60;;;19.80;28.20;;;;;;5076117;28;20437;-67
2021/04/08 07:39:54;;;;;;;1.93;1.73;;;19.10;28.20;;;;;;5075667;28;20396;-69
2021/04/08 07:42:25;;;;;;;3.67;2.17;;;18.40;28.20;;;;;;5075992;28;20401;-69
2021/04/08 07:44:53;;;;;;;3.80;2.13;;;18.70;27.90;;;;;;5075797;28;20432;-69
2021/04/08 07:47:32;;;;;;;6.57;2.47;;;18.70;27.50;;;;;;5075506;28;20977;-70
2021/04/08 07:50:07;;;;;;;3.47;3.03;;;17.40;29.00;;;;;;5074531;28;20529;-70
2021/04/08 07:52:41;;;;;;;2.13;1.77;;;18.30;28.40;;;;;;5075467;28;20805;-70
2021/04/08 07:55:09;;;;;;;2.70;2.03;;;19.50;27.50;;;;;;5075194;28;20547;-70
2021/04/08 07:57:53;;;;;;;2.30;2.10;;;20.00;26.70;;;;;;5075615;28;20404;-67
2021/04/08 08:00:21;;;;;;;1.10;1.10;;;20.70;25.80;;;;;;5075506;28;20425;-69
2021/04/08 08:02:47;;;;;;;2.73;2.50;;;20.80;26.10;;;;;;5075612;28;20402;-69
2021/04/08 08:05:25;;;;;;;3.80;2.30;;;20.60;25.90;;;;;;5075780;28;20909;-69
2021/04/08 08:07:52;;;;;;;2.43;2.23;;;20.50;25.60;;;;;;5075584;28;20406;-69
2021/04/08 08:10:20;;;;;;;2.63;2.17;;;19.60;26.20;;;;;;5075289;28;20420;-67
2021/04/08 08:12:47;;;;;;;2.63;2.43;;;19.70;27.10;;;;;;5075183;28;20408;-67
2021/04/08 08:15:24;;;;;;;3.63;2.17;;;20.50;25.80;;;;;;5074721;28;20513;-67
2021/04/08 08:17:51;;;;;;;2.90;1.90;;;20.60;26.90;;;;;;5075591;28;20411;-67
2021/04/08 08:20:18;;;;;;;4.33;2.10;;;18.30;27.60;;;;;;5074812;28;20399;-67
2021/04/08 08:22:45;;;;;;;2.90;2.60;;;18.50;27.50;;;;;;5074815;28;20431;-68
2021/04/08 08:25:13;;;;;;;2.07;1.97;;;19.90;26.60;;;;;;5075174;28;20431;-67
2021/04/08 08:27:43;;;;;;;4.10;3.07;;;20.70;25.80;;;;;;5075096;28;20403;-67
2021/04/08 08:30:20;;;;;;;2.80;2.57;;;21.00;26.30;;;;;;5074019;28;20410;-71
2021/04/08 08:33:07;;;;;;;2.93;1.87;;;21.20;25.80;;;;;;5074709;28;20499;-68
2021/04/08 08:35:34;;;;;;;2.33;2.13;;;22.00;24.90;;;;;;5074878;28;20426;-67
2021/04/08 08:38:08;;;;;;;4.63;2.37;;;22.70;25.40;;;;;;5074765;28;20770;-68
2021/04/08 08:40:35;;;;;;;3.43;2.60;;;21.30;24.00;;;;;;5074346;28;20456;-70
2021/04/08 08:43:02;;;;;;;2.50;2.20;;;17.20;26.00;;;;;;5074709;28;20393;-67
2021/04/08 08:45:29;;;;;;;3.33;2.60;;;16.50;27.40;;;;;;5074527;28;20427;-70
2021/04/08 08:47:55;;;;;;;1.90;1.80;;;16.70;27.90;;;;;;5074484;28;20511;-70
2021/04/08 08:50:21;;;;;;;2.40;2.20;;;17.00;28.90;;;;;;5074549;28;20436;-68
2021/04/08 08:52:50;;;;;;;2.80;2.17;;;17.00;28.40;;;;;;5074820;28;20438;-68
2021/04/08 08:55:18;;;;;;;2.90;1.63;;;17.20;26.80;;;;;;5074155;28;20201;-70
2021/04/08 08:57:46;;;;;;;1.90;1.80;;;16.70;33.00;;;;;;5074643;28;20396;-69
2021/04/08 09:00:15;;;;;;;2.63;1.77;;;16.70;34.60;;;;;;5074205;28;20434;-68
2021/04/08 09:02:42;;;;;;;4.70;3.30;;;16.30;29.30;;;;;;5073461;28;20404;-67
2021/04/08 09:05:12;;;;;;;2.70;2.10;;;16.50;28.20;;;;;;5072315;28;20423;-68
2021/04/08 09:07:40;;;;;;;5.40;2.90;;;17.00;28.00;;;;;;5074185;28;20411;-68
2021/04/08 09:10:07;;;;;;;2.57;1.90;;;17.90;26.60;;;;;;5072770;28;20406;-67
2021/04/08 09:12:33;;;;;;;2.80;2.47;;;17.60;26.30;;;;;;5074070;28;20935;-68
2021/04/08 09:14:58;;;;;;;3.60;1.97;;;17.50;27.50;;;;;;5073620;28;20828;-68
2021/04/08 09:17:45;;;;;;;2.50;2.30;;;18.50;27.30;;;;;;5074143;28;20483;-68
2021/04/08 09:20:15;;;;;;;2.70;2.50;;;19.00;26.10;;;;;;5073728;28;20168;-67
2021/04/08 09:23:01;;;;;;;3.63;2.53;;;19.30;25.40;;;;;;5073676;28;20428;-67
2021/04/08 09:25:58;;;;;;;1.90;1.63;;;20.90;24.10;;;;;;5074129;28;20468;-68
2021/04/08 09:28:30;;;;;;;4.37;2.63;;;20.70;23.60;;;;;;5072820;28;20938;-67
2021/04/08 09:33:43;;;;;;;5.53;2.43;;;16.90;26.20;;;;;;5073874;28;20412;-68
2021/04/08 09:36:24;;;;;;;2.57;2.37;;;16.40;26.70;;;;;;5073897;28;20443;-68
2021/04/08 09:38:56;;;;;;;2.40;2.20;;;16.80;27.90;;;;;;5073854;28;20547;-68
2021/04/08 09:41:46;;;;;;;2.97;2.37;;;17.40;26.50;;;;;;5073050;28;20398;-67
2021/04/08 09:44:14;;;;;;;2.00;1.90;;;18.40;26.70;;;;;;5073544;28;20427;-68
2021/04/08 09:46:41;;;;;;;2.03;1.83;;;19.30;25.60;;;;;;5073858;28;20411;-67
2021/04/08 09:49:08;;;;;;;2.30;2.20;;;20.20;24.10;;;;;;5073653;28;20405;-68
2021/04/08 09:51:44;;;;;;;2.87;2.20;;;20.50;24.10;;;;;;5073785;28;20407;-68
2021/04/08 09:54:13;;;;;;;2.47;2.10;;;20.10;23.70;;;;;;5073610;28;20449;-67
2021/04/08 09:56:39;;;;;;;4.10;2.73;;;19.00;23.30;;;;;;5073606;28;20464;-68
2021/04/08 09:59:05;;;;;;;2.20;1.80;;;18.80;25.90;;;;;;5073120;28;20791;-68
2021/04/08 10:01:31;;;;;;;2.27;2.07;;;19.50;25.60;;;;;;5073714;28;20414;-67
2021/04/08 10:04:08;;;;;;;2.83;1.93;;;20.20;24.50;;;;;;5073758;28;20918;-67
2021/04/08 10:06:34;;;;;;;2.70;2.43;;;20.70;24.00;;;;;;5073415;28;20179;-68
2021/04/08 10:09:07;;;;;;;2.70;2.00;;;20.90;25.90;;;;;;5073094;28;20408;-68
2021/04/08 10:11:33;;;;;;;6.10;2.40;;;21.00;24.20;;;;;;5073425;28;20599;-68
2021/04/08 10:13:59;;;;;;;2.80;1.80;;;20.70;24.50;;;;;;5073273;28;20424;-68
2021/04/08 10:16:25;;;;;;;1.67;1.57;;;21.00;24.70;;;;;;5073546;28;20665;-67
2021/04/08 10:19:01;;;;;;;3.50;2.10;;;20.50;24.10;;;;;;5073233;28;20860;-67
2021/04/08 10:21:28;;;;;;;3.20;2.50;;;17.50;25.30;;;;;;5073248;28;20466;-67
2021/04/08 10:23:54;;;;;;;4.33;1.77;;;16.40;27.00;;;;;;5073242;28;20428;-67
2021/04/08 10:26:29;;;;;;;5.20;1.90;;;16.00;26.40;;;;;;5073511;28;20423;-67
2021/04/08 10:28:56;;;;;;;2.47;1.93;;;16.80;26.60;;;;;;5072812;28;20408;-67
2021/04/08 10:31:28;;;;;;;7.30;1.70;;;18.10;26.10;;;;;;5072927;28;20456;-68
2021/04/08 10:33:55;;;;;;;2.33;2.10;;;17.20;26.10;;;;;;5073038;28;20439;-67
2021/04/08 10:36:33;;;;;;;2.70;2.13;;;16.60;26.90;;;;;;5073128;28;20466;-67
2021/04/08 10:39:22;;;;;;;2.23;2.03;;;16.60;28.30;;;;;;5073104;28;20410;-68
2021/04/08 10:42:07;;;;;;;1.87;1.70;;;16.10;27.30;;;;;;5073226;28;20453;-68
2021/04/08 10:44:35;;;;;;;2.30;1.87;;;14.80;29.60;;;;;;5073211;28;20415;-68
2021/04/08 10:47:16;;;;;;;2.07;1.80;;;15.50;28.60;;;;;;5073150;28;20399;-68
2021/04/08 10:49:43;;;;;;;2.43;2.23;;;16.10;27.80;;;;;;5072775;28;20414;-67
2021/04/08 10:52:12;;;;;;;5.10;2.83;;;16.20;26.70;;;;;;5072561;28;20419;-68
2021/04/08 10:54:40;;;;;;;3.37;2.40;;;15.40;29.10;;;;;;5076479;28;20465;-67
2021/04/08 10:57:07;;;;;;;2.57;2.00;;;14.90;29.50;;;;;;5076653;28;20801;-67
2021/04/08 10:59:33;;;;;;;7.87;3.00;;;14.00;29.90;;;;;;5076258;28;20895;-67
2021/04/08 11:02:01;;;;;;;2.80;1.97;;;14.30;30.50;;;;;;5076295;28;20903;-68
2021/04/08 11:04:27;;;;;;;3.57;2.10;;;13.70;29.20;;;;;;5076803;28;20778;-67
2021/04/08 11:06:56;;;;;;;2.63;2.00;;;13.30;28.40;;;;;;5076271;28;20411;-67
2021/04/08 11:09:27;;;;;;;2.30;2.10;;;12.60;30.80;;;;;;5075978;28;20914;-67
2021/04/08 11:11:54;;;;;;;3.40;2.43;;;12.00;30.80;;;;;;5076495;28;20400;-67
2021/04/08 11:14:27;;;;;;;2.43;2.17;;;12.20;31.90;;;;;;5076245;28;20430;-67
2021/04/08 11:16:57;;;;;;;2.70;1.80;;;12.30;30.80;;;;;;5076665;28;20403;-67
2021/04/08 11:19:24;;;;;;;2.03;1.90;;;12.00;32.00;;;;;;5075288;28;20443;-67
2021/04/08 11:21:50;;;;;;;2.47;2.22;;;11.60;33.70;;;;;;5074084;28;20549;-68
2021/04/08 11:24:17;;;;;;;4.05;2.58;;;11.40;34.50;;;;;;5075853;28;20221;-68
2021/04/08 11:26:53;;;;;;;2.05;1.95;;;11.10;34.30;;;;;;5075796;28;20260;-68
2021/04/08 11:29:27;;;;;;;2.72;2.10;;;11.00;33.30;;;;;;5075694;28;20161;-67
2021/04/08 11:31:58;;;;;;;3.13;2.53;;;10.90;34.20;;;;;;5075744;28;20173;-67
2021/04/08 11:34:24;;;;;;;1.95;1.85;;;11.20;33.90;;;;;;5075531;28;20189;-67
2021/04/08 11:36:53;;;;;;;3.03;2.40;;;11.20;35.40;;;;;;5075638;28;20185;-68
2021/04/08 11:39:19;;;;;;;1.90;1.80;;;10.80;34.40;;;;;;5075510;28;20646;-67
2021/04/08 11:41:45;;;;;;;2.13;2.03;;;10.70;33.40;;;;;;5075729;28;20181;-67
2021/04/08 11:44:26;;;;;;;3.27;2.40;;;10.80;33.60;;;;;;5075445;28;20185;-67
2021/04/08 11:46:52;;;;;;;1.85;1.75;;;10.40;36.00;;;;;;5075473;28;20503;-68
2021/04/08 11:49:19;;;;;;;2.77;2.57;;;10.30;34.50;;;;;;5075234;28;20608;-67
2021/04/08 11:51:47;;;;;;;3.03;2.83;;;10.30;38.00;;;;;;5075489;28;20184;-67
2021/04/08 11:54:16;;;;;;;2.80;2.60;;;9.40;36.50;;;;;;5075233;28;20189;-70
2021/04/08 11:56:43;;;;;;;2.45;2.30;;;9.20;39.20;;;;;;5075267;28;20242;-68
2021/04/08 11:59:23;;;;;;;3.20;2.90;;;9.30;35.70;;;;;;5075441;28;20170;-68
2021/04/08 12:01:51;;;;;;;2.63;2.42;;;9.60;37.70;;;;;;5075295;28;20244;-68
2021/04/08 12:04:19;;;;;;;2.50;2.30;;;9.60;35.80;;;;;;5074189;28;20622;-68
2021/04/08 12:06:59;;;;;;;2.42;2.22;;;9.80;37.40;;;;;;5075094;28;20182;-68
2021/04/08 12:09:36;;;;;;;2.50;2.30;;;9.80;36.80;;;;;;5074816;28;20169;-68
2021/04/08 12:12:03;;;;;;;2.28;2.00;;;9.60;37.00;;;;;;5073792;28;20631;-68
2021/04/08 12:14:29;;;;;;;3.58;3.20;;;9.20;36.50;;;;;;5074729;28;20568;-67
2021/04/08 12:17:08;;;;;;;3.67;2.00;;;9.10;35.20;;;;;;5075028;28;20165;-67
2021/04/08 12:19:35;;;;;;;3.53;2.42;;;9.10;36.40;;;;;;5074577;28;20172;-68
2021/04/08 12:22:04;;;;;;;2.58;2.38;;;9.00;38.90;;;;;;5074786;28;20203;-67
2021/04/08 12:24:31;;;;;;;2.95;2.40;;;8.80;38.70;;;;;;5074612;28;20279;-67
2021/04/08 12:26:56;;;;;;;3.33;3.00;;;8.80;38.40;;;;;;5074790;28;20274;-67
2021/04/08 12:29:24;;;;;;;4.93;2.10;;;9.00;39.10;;;;;;5074559;28;20643;-67
2021/04/08 12:31:53;;;;;;;4.38;2.10;;;9.10;37.50;;;;;;5074777;28;20250;-68
2021/04/08 12:34:20;;;;;;;2.78;2.50;;;9.10;37.00;;;;;;5074379;28;20193;-68
2021/04/08 12:36:46;;;;;;;2.25;2.15;;;9.30;36.40;;;;;;5074538;28;20170;-68
2021/04/08 12:39:11;;;;;;;4.78;2.40;;;9.10;38.10;;;;;;5074291;28;20176;-68
2021/04/08 12:41:37;;;;;;;3.07;2.83;;;9.00;39.30;;;;;;5074544;28;20585;-67
2021/04/08 12:44:04;;;;;;;2.77;2.13;;;9.30;39.10;;;;;;5074261;28;20667;-68
2021/04/08 12:46:30;;;;;;;2.22;2.03;;;9.50;36.70;;;;;;5072757;28;20408;-68
2021/04/08 12:48:56;;;;;;;3.73;2.57;;;9.10;36.30;;;;;;5074115;28;20530;-67
2021/04/08 12:51:22;;;;;;;2.57;2.37;;;9.10;38.60;;;;;;5074213;28;20442;-68
2021/04/08 12:53:47;;;;;;;4.47;2.43;;;9.10;42.40;;;;;;5074173;28;20196;-67
2021/04/08 12:56:14;;;;;;;4.30;2.50;;;9.20;39.40;;;;;;5074077;28;20479;-68
2021/04/08 12:58:40;;;;;;;2.88;2.30;;;9.10;38.40;;;;;;5074115;28;20196;-68
2021/04/08 13:01:06;;;;;;;2.63;2.43;;;8.90;38.70;;;;;;5072910;28;20193;-67
2021/04/08 13:03:31;;;;;;;2.00;1.90;;;8.80;38.20;;;;;;5074084;28;20170;-68